createdAt,value
2023-01-11T01:52:02.291Z,0.50
2023-01-11T01:54:39.251Z,0.60
2023-01-11T01:57:17.725Z,0.40
2023-01-11T01:59:45.721Z,0.38
2023-01-11T02:02:13.045Z,0.30
2023-01-11T02:04:47.591Z,0.13
2023-01-11T02:07:25.653Z,0.28
2023-01-11T02:10:15.231Z,0.55
2023-01-11T02:13:00.904Z,0.40
2023-01-11T02:15:28.422Z,0.38
2023-01-11T02:17:55.773Z,0.17
2023-01-11T02:20:44.931Z,0.22
2023-01-11T02:23:29.864Z,0.10
2023-01-11T02:26:39.934Z,0.30
2023-01-11T02:29:23.096Z,0.20
2023-01-11T02:32:21.162Z,0.30
2023-01-11T02:34:59.518Z,0.20
2023-01-11T02:37:38.135Z,0.40
2023-01-11T02:40:38.044Z,0.20
2023-01-11T02:43:59.263Z,0.52
2023-01-11T02:46:47.117Z,0.15
2023-01-11T02:49:29.369Z,0.38
2023-01-11T02:52:20.746Z,0.20
2023-01-11T02:54:55.627Z,0.10
2023-01-11T02:57:25.439Z,0.25
2023-01-11T02:59:55.060Z,0.20
2023-01-11T03:02:21.955Z,0.17
2023-01-11T03:04:49.325Z,0.17
2023-01-11T03:07:27.469Z,0.22
2023-01-11T03:10:24.426Z,0.30
2023-01-11T03:13:15.233Z,0.10
2023-01-11T03:16:13.550Z,0.30
2023-01-11T03:18:53.376Z,0.30
2023-01-11T03:22:02.378Z,0.20
2023-01-11T03:24:58.219Z,0.20
2023-01-11T03:27:32.556Z,0.25
2023-01-11T03:30:27.965Z,0.10
2023-01-11T03:33:20.660Z,0.22
2023-01-11T03:36:23.555Z,0.17
2023-01-11T03:39:40.599Z,0.20
2023-01-11T03:42:09.948Z,0.30
2023-01-11T03:44:44.077Z,0.20
2023-01-11T03:47:14.924Z,0.20
2023-01-11T03:50:08.295Z,0.13
2023-01-11T03:52:38.971Z,0.20
2023-01-11T03:55:09.305Z,0.10
2023-01-11T03:57:51.165Z,0.17
2023-01-11T04:00:23.112Z,0.20
2023-01-11T04:02:53.859Z,0.40
2023-01-11T04:05:21.440Z,0.20
2023-01-11T04:07:48.347Z,0.40
2023-01-11T04:10:15.773Z,0.35
2023-01-11T04:12:45.539Z,0.30
2023-01-11T04:15:13.337Z,0.70
2023-01-11T04:17:40.343Z,0.10
2023-01-11T04:20:11.572Z,0.30
2023-01-11T04:22:38.881Z,0.30
2023-01-11T04:25:06.519Z,0.10
2023-01-11T04:27:33.468Z,0.10
2023-01-11T04:30:00.804Z,0.35
2023-01-11T04:32:28.063Z,0.20
2023-01-11T04:34:55.049Z,0.10
2023-01-11T04:37:22.390Z,0.10
2023-01-11T04:39:49.315Z,0.10
2023-01-11T04:42:19.395Z,0.60
2023-01-11T04:44:51.187Z,0.10
2023-01-11T04:47:21.985Z,0.10
2023-01-11T04:49:49.615Z,0.30
2023-01-11T04:52:19.636Z,0.10
2023-01-11T04:54:48.658Z,0.10
2023-01-11T04:57:17.612Z,0.20
2023-01-11T04:59:46.759Z,0.20
2023-01-11T05:02:15.068Z,0.20
2023-01-11T05:04:42.390Z,0.20
2023-01-11T05:07:10.539Z,0.55
2023-01-11T05:09:37.565Z,0.10
2023-01-11T05:12:04.640Z,0.10
2023-01-11T05:14:31.929Z,0.10
2023-01-11T05:16:59.010Z,0.20
2023-01-11T05:19:26.415Z,0.13
2023-01-11T05:21:53.686Z,0.10
2023-01-11T05:24:21.007Z,0.10
2023-01-11T05:26:50.129Z,0.10
2023-01-11T05:29:20.312Z,0.20
2023-01-11T05:31:47.675Z,0.13
2023-01-11T05:34:15.528Z,0.10
2023-01-11T05:36:43.128Z,0.15
2023-01-11T05:39:12.562Z,1.27
2023-01-11T05:41:39.947Z,0.10
2023-01-11T05:44:29.953Z,0.20
2023-01-11T05:46:56.845Z,0.10
2023-01-11T05:49:24.234Z,0.10
2023-01-11T05:51:51.556Z,0.28
2023-01-11T05:54:18.881Z,0.10
2023-01-11T05:56:45.855Z,0.10
2023-01-11T05:59:12.808Z,0.10
2023-01-11T06:01:39.879Z,0.10
2023-01-11T06:04:08.358Z,0.10
2023-01-11T06:06:35.800Z,0.10
2023-01-11T06:09:03.095Z,0.17
2023-01-11T06:11:30.402Z,0.22
2023-01-11T06:13:57.726Z,0.17
2023-01-11T06:16:25.164Z,0.20
2023-01-11T06:18:53.280Z,0.10
2023-01-11T06:21:21.286Z,0.15
2023-01-11T06:23:52.799Z,0.20
2023-01-11T06:26:22.500Z,0.22
2023-01-11T06:28:50.540Z,0.28
2023-01-11T06:31:18.594Z,0.35
2023-01-11T06:33:46.398Z,0.20
2023-01-11T06:36:14.567Z,0.28
2023-01-11T06:38:42.010Z,0.22
2023-01-11T06:41:10.083Z,0.28
2023-01-11T06:43:41.650Z,0.20
2023-01-11T06:46:16.410Z,0.25
2023-01-11T06:48:44.194Z,0.40
2023-01-11T06:51:12.411Z,0.25
2023-01-11T06:53:41.425Z,0.30
2023-01-11T06:56:12.385Z,0.15
2023-01-11T06:58:40.063Z,0.47
2023-01-11T07:01:07.430Z,0.10
2023-01-11T07:03:35.405Z,0.20
2023-01-11T07:06:04.315Z,0.40
2023-01-11T07:08:31.670Z,0.20
2023-01-11T07:10:58.759Z,1.40
2023-01-11T07:13:25.707Z,0.50
2023-01-11T07:15:54.235Z,0.30
2023-01-11T07:18:21.702Z,0.25
2023-01-11T07:20:50.670Z,0.20
2023-01-11T07:23:17.627Z,0.20
2023-01-11T07:25:44.567Z,0.20
2023-01-11T07:28:11.512Z,0.20
2023-01-11T07:30:56.055Z,0.28
2023-01-11T07:33:24.709Z,0.20
2023-01-11T07:35:51.638Z,0.30
2023-01-11T07:38:18.912Z,0.50
2023-01-11T07:40:46.201Z,0.30
2023-01-11T07:43:18.880Z,0.20
2023-01-11T07:45:51.805Z,0.38
2023-01-11T07:48:26.916Z,0.20
2023-01-11T07:50:54.897Z,0.40
2023-01-11T07:53:25.604Z,0.20
2023-01-11T07:55:54.733Z,0.10
2023-01-11T07:58:21.748Z,0.10
2023-01-11T08:00:48.779Z,0.40
2023-01-11T08:03:16.221Z,0.40
2023-01-11T08:05:43.276Z,0.20
2023-01-11T08:08:10.803Z,0.20
2023-01-11T08:10:40.352Z,0.22
2023-01-11T08:13:32.298Z,0.25
2023-01-11T08:16:00.040Z,0.32
2023-01-11T08:18:27.133Z,0.35
2023-01-11T08:20:54.189Z,0.20
2023-01-11T08:23:21.219Z,0.30
2023-01-11T08:25:48.168Z,0.35
2023-01-11T08:28:15.475Z,0.43
2023-01-11T08:30:42.610Z,0.30
2023-01-11T08:33:10.550Z,0.20
2023-01-11T08:35:39.156Z,0.15
2023-01-11T08:38:06.328Z,0.30
2023-01-11T08:40:33.771Z,0.20
2023-01-11T08:43:01.094Z,0.30
2023-01-11T08:45:28.054Z,0.20
2023-01-11T08:47:55.579Z,0.38
2023-01-11T08:50:23.837Z,0.52
2023-01-11T08:52:51.865Z,0.10
2023-01-11T08:55:21.896Z,0.30
2023-01-11T08:57:49.252Z,0.20
2023-01-11T09:00:16.824Z,0.20
2023-01-11T09:02:45.713Z,0.68
2023-01-11T09:05:12.772Z,0.10
2023-01-11T09:07:40.092Z,0.40
2023-01-11T09:10:07.977Z,0.30
2023-01-11T09:12:35.390Z,0.35
2023-01-11T09:15:05.702Z,0.15
2023-01-11T09:17:33.176Z,0.40
2023-01-11T09:20:00.050Z,0.20
2023-01-11T09:22:27.663Z,0.40
2023-01-11T09:24:55.332Z,0.20
2023-01-11T09:27:22.655Z,0.25
2023-01-11T09:29:49.546Z,0.20
2023-01-11T09:32:16.670Z,0.40
2023-01-11T09:34:46.798Z,0.20
2023-01-11T09:37:14.409Z,0.13
2023-01-11T09:39:41.906Z,0.28
2023-01-11T09:42:24.648Z,0.30
2023-01-11T09:44:56.682Z,0.40
2023-01-11T09:47:41.025Z,0.35
2023-01-11T09:50:31.154Z,0.35
2023-01-11T09:53:04.603Z,0.30
2023-01-11T09:55:46.597Z,0.43
2023-01-11T09:58:46.845Z,0.17
2023-01-11T10:01:37.862Z,0.40
2023-01-11T10:04:33.273Z,0.40
2023-01-11T10:18:26.401Z,0.25
2023-01-11T10:18:28.850Z,0.32
2023-01-11T10:21:15.056Z,0.40
2023-01-11T10:23:55.816Z,0.40
2023-01-11T10:26:32.476Z,0.40
2023-01-11T10:29:21.796Z,0.45
2023-01-11T10:32:25.667Z,0.20
2023-01-11T10:34:56.786Z,1.25
2023-01-11T10:38:10.260Z,2.00
2023-01-11T10:41:03.226Z,0.60
2023-01-11T10:43:35.439Z,0.57
2023-01-11T10:46:24.938Z,1.17
2023-01-11T10:49:21.107Z,0.30
2023-01-11T10:51:49.455Z,0.40
2023-01-11T10:54:22.237Z,0.30
2023-01-11T10:57:02.797Z,1.63
2023-01-11T10:59:53.411Z,2.10
2023-01-11T11:03:04.498Z,1.10
2023-01-11T11:05:53.735Z,0.43
2023-01-11T11:08:37.867Z,0.55
2023-01-11T11:11:13.892Z,0.88
2023-01-11T11:13:57.577Z,0.50
2023-01-11T11:16:27.893Z,0.50
2023-01-11T11:18:58.708Z,0.38
2023-01-11T11:21:35.038Z,0.38
2023-01-11T11:24:09.209Z,0.40
2023-01-11T11:26:41.400Z,0.63
2023-01-11T11:31:43.420Z,0.22
2023-01-11T11:34:21.113Z,0.20
2023-01-11T11:36:50.629Z,0.20
2023-01-11T11:39:27.309Z,0.60
2023-01-11T11:42:10.669Z,0.40
2023-01-11T11:44:38.241Z,0.45
2023-01-11T11:47:14.193Z,0.28
2023-01-11T11:49:42.173Z,0.32
2023-01-11T11:52:15.259Z,0.30
2023-01-11T11:54:58.130Z,0.50
2023-01-11T11:57:30.540Z,0.40
2023-01-11T12:00:22.711Z,0.40
2023-01-11T12:02:58.255Z,0.50
2023-01-11T12:05:25.649Z,0.32
2023-01-11T12:07:55.409Z,0.47
2023-01-11T12:10:28.097Z,0.32
2023-01-11T12:12:58.461Z,0.40
2023-01-11T12:15:34.258Z,0.32
2023-01-11T12:18:27.820Z,0.52
2023-01-11T12:20:55.553Z,0.17
2023-01-11T12:23:25.602Z,0.38
2023-01-11T12:26:22.795Z,0.30
2023-01-11T12:29:04.945Z,0.43
2023-01-11T12:32:00.151Z,0.13
2023-01-11T12:34:48.569Z,0.32
2023-01-11T12:37:34.289Z,0.55
2023-01-11T12:40:37.464Z,0.17
2023-01-11T12:43:29.230Z,0.10
2023-01-11T12:46:39.751Z,0.30
2023-01-11T12:49:51.520Z,0.22
2023-01-11T12:52:36.041Z,0.47
2023-01-11T12:55:46.847Z,0.50
2023-01-11T12:58:32.997Z,0.20
2023-01-11T13:01:12.738Z,0.65
2023-01-11T13:03:52.799Z,0.35
2023-01-11T13:06:56.720Z,0.10
2023-01-11T13:10:05.677Z,0.20
2023-01-11T13:12:45.789Z,0.20
2023-01-11T13:15:34.254Z,0.57
2023-01-11T13:18:28.694Z,0.40
2023-01-11T13:21:32.271Z,0.20
2023-01-11T13:24:06.337Z,0.20
2023-01-11T13:26:41.411Z,0.43
2023-01-11T13:29:27.530Z,0.43
2023-01-11T13:31:59.420Z,0.13
2023-01-11T13:34:41.565Z,0.20
2023-01-11T13:37:40.170Z,0.10
2023-01-11T13:40:36.235Z,0.30
2023-01-11T13:43:37.347Z,0.38
2023-01-11T13:46:29.930Z,0.20
2023-01-11T13:49:32.552Z,0.20
2023-01-11T13:52:04.887Z,0.30
2023-01-11T13:54:41.407Z,0.25
2023-01-11T13:57:30.625Z,0.40
2023-01-11T14:00:10.386Z,0.40
2023-01-11T14:03:26.512Z,0.50
2023-01-11T14:06:03.313Z,0.38
2023-01-11T14:08:48.245Z,0.10
2023-01-11T14:11:40.672Z,0.40
2023-01-11T14:14:39.527Z,0.10
2023-01-11T14:17:06.914Z,0.20
2023-01-11T14:20:11.991Z,0.20
2023-01-11T14:23:03.635Z,0.10
2023-01-11T14:25:57.020Z,0.65
2023-01-11T14:29:11.475Z,0.68
2023-01-11T14:32:00.132Z,0.08
2023-01-11T14:34:42.018Z,0.60
2023-01-11T14:38:20.432Z,0.10
2023-01-11T14:41:03.988Z,0.10
2023-01-11T14:43:57.397Z,0.17
2023-01-11T14:46:49.093Z,0.10
2023-01-11T14:49:53.455Z,0.10
2023-01-11T14:52:39.478Z,0.22
2023-01-11T14:55:21.523Z,0.30
2023-01-11T14:58:29.392Z,0.10
2023-01-11T15:00:56.661Z,0.10
2023-01-11T15:03:24.060Z,0.10
2023-01-11T15:06:16.614Z,0.10
2023-01-11T15:08:53.345Z,0.25
2023-01-11T15:11:20.620Z,0.20
2023-01-11T15:13:55.132Z,0.20
2023-01-11T15:16:48.451Z,0.20
2023-01-11T15:19:37.029Z,0.20
2023-01-11T15:22:05.937Z,0.10
2023-01-11T15:24:43.120Z,0.30
2023-01-11T15:27:36.061Z,0.20
2023-01-11T15:30:05.987Z,0.40
2023-01-11T15:32:36.693Z,0.25
2023-01-11T15:35:23.153Z,0.10
2023-01-11T15:38:02.258Z,0.10
2023-01-11T15:40:39.259Z,0.22
2023-01-11T15:44:00.539Z,0.30
2023-01-11T15:46:55.238Z,0.28
2023-01-11T15:50:17.295Z,0.10
2023-01-11T15:53:17.175Z,0.40
2023-01-11T15:56:37.449Z,0.30
2023-01-11T15:59:38.689Z,0.25
2023-01-11T16:02:14.870Z,0.38
2023-01-11T16:04:54.118Z,0.30
2023-01-11T16:07:25.881Z,0.35
2023-01-11T16:10:49.955Z,0.28
2023-01-11T16:13:28.700Z,0.40
2023-01-11T16:16:20.435Z,0.38
2023-01-11T16:18:55.925Z,0.10
2023-01-11T16:21:33.899Z,0.70
2023-01-11T16:24:22.377Z,0.30
2023-01-11T16:27:00.106Z,1.15
2023-01-11T16:29:35.830Z,0.30
2023-01-11T16:32:19.618Z,0.40
2023-01-11T16:34:51.516Z,0.50
2023-01-11T16:37:49.509Z,0.35
2023-01-11T16:40:24.637Z,0.60
2023-01-11T16:43:07.597Z,0.20
2023-01-11T16:45:48.356Z,0.15
2023-01-11T16:48:19.039Z,0.98
2023-01-11T16:51:10.620Z,0.32
2023-01-11T16:53:43.016Z,0.30
2023-01-11T16:56:15.316Z,0.47
2023-01-11T17:01:15.486Z,2.05
2023-01-11T17:03:54.883Z,1.00
2023-01-11T17:06:24.598Z,0.47
2023-01-11T17:08:56.803Z,2.47
2023-01-11T17:11:46.728Z,1.58
2023-01-11T17:14:44.876Z,0.90
2023-01-11T17:17:13.688Z,0.63
2023-01-11T17:19:47.831Z,0.52
2023-01-11T17:22:34.140Z,1.23
2023-01-11T17:25:11.450Z,0.68
2023-01-11T17:27:41.565Z,1.02
2023-01-11T17:30:24.158Z,1.55
2023-01-11T17:32:54.209Z,0.60
2023-01-11T17:35:27.168Z,1.25
2023-01-11T17:38:04.684Z,1.45
2023-01-11T17:40:41.519Z,0.73
2023-01-11T17:43:45.770Z,0.82
2023-01-11T17:46:27.437Z,0.73
2023-01-11T17:48:59.798Z,0.90
2023-01-11T17:51:32.645Z,0.60
2023-01-11T17:54:00.222Z,0.90
2023-01-11T17:56:33.232Z,0.40
2023-01-11T17:59:24.511Z,0.47
2023-01-11T18:02:03.809Z,0.30
2023-01-11T18:04:31.816Z,0.47
2023-01-11T18:07:17.333Z,0.43
2023-01-11T18:09:48.937Z,0.63
2023-01-11T18:12:29.118Z,0.77
2023-01-11T18:15:03.020Z,1.08
2023-01-11T18:17:39.188Z,0.40
2023-01-11T18:20:15.575Z,0.52
2023-01-11T18:22:56.216Z,0.20
2023-01-11T18:25:26.367Z,1.20
2023-01-11T18:28:22.261Z,0.20
2023-01-11T18:30:54.431Z,0.25
2023-01-11T18:35:58.109Z,0.63
2023-01-11T18:38:34.382Z,1.00
2023-01-11T18:41:27.024Z,1.20
2023-01-11T18:46:22.083Z,0.40
2023-01-11T18:48:49.852Z,0.85
2023-01-11T18:51:31.161Z,0.30
2023-01-11T18:53:58.636Z,0.80
2023-01-11T18:56:26.037Z,0.50
2023-01-11T18:58:53.388Z,0.75
2023-01-11T19:01:20.838Z,2.85
2023-01-11T19:03:48.271Z,0.65
2023-01-11T19:06:19.306Z,0.55
2023-01-11T19:08:46.714Z,0.40
2023-01-11T19:11:15.421Z,0.50
2023-01-11T19:13:44.456Z,1.05
2023-01-11T19:16:13.239Z,0.55
2023-01-11T19:18:40.492Z,0.38
2023-01-11T19:21:09.202Z,1.27
2023-01-11T19:23:36.601Z,0.52
2023-01-11T19:26:04.112Z,0.80
2023-01-11T19:28:31.579Z,0.85
2023-01-11T19:30:58.869Z,1.10
2023-01-11T19:34:06.768Z,0.80
2023-01-11T19:36:48.106Z,1.17
2023-01-11T19:39:22.796Z,1.70
2023-01-11T19:42:09.685Z,1.50
2023-01-11T19:44:47.754Z,2.35
2023-01-11T19:47:16.055Z,2.65
2023-01-11T19:50:02.686Z,3.30
2023-01-11T19:52:36.136Z,2.58
2023-01-11T19:55:14.633Z,1.45
2023-01-11T19:57:45.167Z,1.88
2023-01-11T20:00:25.816Z,1.75
2023-01-11T20:03:16.092Z,0.40
2023-01-11T20:06:11.775Z,1.08
2023-01-11T20:08:42.356Z,1.80
2023-01-11T20:11:18.628Z,1.67
2023-01-11T20:14:05.357Z,1.25
2023-01-11T20:16:39.641Z,0.88
2023-01-11T20:19:10.307Z,1.00
2023-01-11T20:21:51.249Z,1.38
2023-01-11T20:24:32.236Z,0.68
2023-01-11T20:27:06.009Z,1.38
2023-01-11T20:29:33.454Z,1.42
2023-01-11T20:32:13.653Z,1.60
2023-01-11T20:34:47.323Z,1.13
2023-01-11T20:37:15.171Z,1.23
2023-01-11T20:39:42.129Z,1.27
2023-01-11T20:42:12.459Z,0.95
2023-01-11T20:44:39.655Z,0.98
2023-01-11T20:47:07.076Z,0.90
2023-01-11T20:49:34.610Z,0.68
2023-01-11T20:52:01.647Z,0.52
2023-01-11T20:54:28.682Z,0.82
2023-01-11T20:57:01.144Z,0.75
2023-01-11T20:59:28.204Z,0.50
2023-01-11T21:01:55.599Z,0.80
2023-01-11T21:04:22.601Z,0.77
2023-01-11T21:06:50.031Z,0.85
2023-01-11T21:09:18.892Z,1.05
2023-01-11T21:11:53.186Z,0.98
2023-01-11T21:14:21.766Z,1.40
2023-01-11T21:16:49.000Z,1.42
2023-01-11T21:19:16.529Z,1.58
2023-01-11T21:21:44.320Z,0.90
2023-01-11T21:24:15.753Z,0.50
2023-01-11T21:26:45.587Z,0.85
2023-01-11T21:29:13.475Z,1.08
2023-01-11T21:31:41.487Z,0.73
2023-01-11T21:34:11.375Z,1.73
2023-01-11T21:36:38.938Z,0.85
2023-01-11T21:39:06.708Z,1.05
2023-01-11T21:41:53.288Z,0.65
2023-01-11T21:44:23.826Z,1.00
2023-01-11T21:46:54.481Z,0.88
2023-01-11T21:49:22.518Z,0.90
2023-01-11T21:51:50.216Z,1.00
2023-01-11T21:54:18.832Z,1.15
2023-01-11T21:56:47.330Z,1.02
2023-01-11T21:59:15.224Z,1.20
2023-01-11T22:01:45.369Z,1.10
2023-01-11T22:04:15.765Z,0.60
2023-01-11T22:06:51.015Z,0.82
2023-01-11T22:09:19.212Z,1.23
2023-01-11T22:11:47.127Z,0.88
2023-01-11T22:14:14.500Z,0.47
2023-01-11T22:16:42.298Z,0.82
2023-01-11T22:19:09.829Z,1.25
2023-01-11T22:21:37.787Z,0.73
2023-01-11T22:24:06.901Z,1.00
2023-01-11T22:26:38.484Z,0.60
2023-01-11T22:29:14.843Z,1.10
2023-01-11T22:31:46.823Z,0.70
2023-01-11T22:34:14.466Z,0.50
2023-01-11T22:36:43.235Z,0.50
2023-01-11T22:39:11.100Z,0.90
2023-01-11T22:41:40.127Z,1.83
2023-01-11T22:44:10.370Z,1.00
2023-01-11T22:46:37.927Z,0.60
2023-01-11T22:49:06.292Z,0.60
2023-01-11T22:51:34.029Z,0.50
2023-01-11T22:54:01.532Z,0.85
2023-01-11T22:56:29.442Z,0.93
2023-01-11T22:58:57.521Z,1.48
2023-01-11T23:01:31.122Z,0.52
2023-01-11T23:03:59.568Z,0.75
2023-01-11T23:06:29.222Z,0.90
2023-01-11T23:08:57.512Z,0.70
2023-01-11T23:11:47.331Z,0.65
2023-01-11T23:14:18.211Z,0.47
2023-01-11T23:16:47.023Z,0.55
2023-01-11T23:19:18.096Z,0.40
2023-01-11T23:21:46.633Z,0.32
2023-01-11T23:24:16.531Z,0.47
2023-01-11T23:26:45.172Z,0.40
2023-01-11T23:29:12.268Z,0.52
2023-01-11T23:31:39.414Z,0.60
2023-01-11T23:34:08.420Z,0.70
2023-01-11T23:36:39.032Z,0.50
2023-01-11T23:39:10.145Z,0.47
2023-01-11T23:41:56.125Z,0.98
2023-01-11T23:44:23.603Z,0.50
2023-01-11T23:47:09.523Z,0.70
2023-01-11T23:49:36.963Z,1.60
2023-01-11T23:52:04.377Z,0.90
2023-01-11T23:54:33.750Z,0.68
2023-01-11T23:57:02.787Z,0.38
2023-01-11T23:59:30.548Z,0.50
